Time;durP1;ratioP1;P1;durP2;ratioP2;P2;SDS_P1;SDS_P2;PMS_P1;PMS_P2;Temp;Humidity;BMP_temperature;BMP_pressure;BME280_temperature;BME280_humidity;BME280_pressure;Samples;Min_cycle;Max_cycle;Signal;HPM_P1;HPM_P2
2023/04/19 00:02:21;;;;;;;0.45;0.45;;;7.80;99.90;;;;;;4408525;32;20106;-65
2023/04/19 00:04:46;;;;;;;0.37;0.37;;;7.80;99.90;;;;;;4410235;32;20448;-65
2023/04/19 00:07:12;;;;;;;0.35;0.35;;;7.90;99.90;;;;;;4406515;32;20089;-64
2023/04/19 00:09:38;;;;;;;1.30;0.82;;;7.90;99.90;;;;;;4410472;32;20552;-65
2023/04/19 00:12:04;;;;;;;3.67;1.48;;;7.90;99.90;;;;;;4406307;32;20082;-67
2023/04/19 00:14:29;;;;;;;0.57;0.57;;;8.00;99.90;;;;;;4405551;32;20140;-65
2023/04/19 00:16:55;;;;;;;0.40;0.40;;;8.00;99.90;;;;;;4409032;32;20114;-65
2023/04/19 00:19:21;;;;;;;1.35;0.70;;;7.90;99.90;;;;;;4407891;32;20117;-65
2023/04/19 00:21:47;;;;;;;0.40;0.40;;;7.90;99.90;;;;;;4410571;32;20062;-65
2023/04/19 00:24:13;;;;;;;0.50;0.50;;;7.90;99.90;;;;;;4410224;32;20149;-65
2023/04/19 00:26:38;;;;;;;0.40;0.40;;;7.80;99.90;;;;;;4408912;32;20093;-65
2023/04/19 00:29:04;;;;;;;0.40;0.40;;;7.70;99.90;;;;;;4408027;32;20098;-65
2023/04/19 00:31:29;;;;;;;0.50;0.50;;;7.70;99.90;;;;;;4408267;32;20082;-65
2023/04/19 00:33:55;;;;;;;0.30;0.30;;;7.60;99.90;;;;;;4408116;32;20081;-65
2023/04/19 00:36:22;;;;;;;0.88;0.62;;;7.60;99.90;;;;;;4409540;32;20738;-65
2023/04/19 00:38:47;;;;;;;0.50;0.50;;;7.70;99.90;;;;;;4409661;32;20471;-65
2023/04/19 00:41:13;;;;;;;0.50;0.50;;;7.60;99.90;;;;;;4410295;32;20202;-65
2023/04/19 00:43:38;;;;;;;0.65;0.65;;;7.50;99.90;;;;;;4407466;32;20081;-66
2023/04/19 00:46:05;;;;;;;1.67;1.00;;;7.60;99.90;;;;;;4412315;32;20082;-66
2023/04/19 00:48:30;;;;;;;1.30;0.60;;;7.60;99.90;;;;;;4410233;32;20115;-65
2023/04/19 00:50:56;;;;;;;0.40;0.40;;;7.70;99.90;;;;;;4408034;32;20093;-66
2023/04/19 00:53:21;;;;;;;0.50;0.50;;;7.60;99.90;;;;;;4403924;32;20138;-65
2023/04/19 00:55:50;;;;;;;0.50;0.50;;;7.60;99.90;;;;;;4409971;32;20073;-65
2023/04/19 00:58:16;;;;;;;0.40;0.40;;;7.60;99.90;;;;;;4408703;32;20082;-66
2023/04/19 01:00:42;;;;;;;0.30;0.30;;;7.60;99.90;;;;;;4409975;32;20214;-65
2023/04/19 01:03:08;;;;;;;0.30;0.30;;;7.60;99.90;;;;;;4409670;32;20474;-65
2023/04/19 01:05:34;;;;;;;0.98;0.95;;;7.50;99.90;;;;;;4405604;32;20082;-65
2023/04/19 01:08:01;;;;;;;0.40;0.40;;;7.50;99.90;;;;;;4405897;32;20082;-65
2023/04/19 01:10:27;;;;;;;0.50;0.50;;;7.50;99.90;;;;;;4408412;32;20533;-65
2023/04/19 01:12:52;;;;;;;0.52;0.50;;;7.50;99.90;;;;;;4407553;32;20093;-65
2023/04/19 01:15:18;;;;;;;0.40;0.40;;;7.50;99.90;;;;;;4408046;32;20085;-65
2023/04/19 01:17:44;;;;;;;0.30;0.30;;;7.50;99.90;;;;;;4408275;32;20097;-65
2023/04/19 01:20:10;;;;;;;0.40;0.40;;;7.40;99.90;;;;;;4409105;32;20066;-65
2023/04/19 01:22:37;;;;;;;0.50;0.50;;;7.50;99.90;;;;;;4408016;32;20070;-65
2023/04/19 01:25:03;;;;;;;0.50;0.50;;;7.40;99.90;;;;;;4408156;32;20536;-65
2023/04/19 01:27:29;;;;;;;0.70;0.70;;;7.40;99.90;;;;;;4407294;32;20089;-65
2023/04/19 01:29:54;;;;;;;0.40;0.40;;;7.40;99.90;;;;;;4406955;32;20081;-65
2023/04/19 01:32:20;;;;;;;0.70;0.70;;;7.30;99.90;;;;;;4407056;32;20065;-65
2023/04/19 01:34:47;;;;;;;0.30;0.30;;;7.20;99.90;;;;;;4407758;32;20078;-65
2023/04/19 01:37:13;;;;;;;2.42;1.12;;;7.20;99.90;;;;;;4407576;32;20494;-65
2023/04/19 01:39:38;;;;;;;0.75;0.75;;;7.30;99.90;;;;;;4409048;32;20110;-65
2023/04/19 01:42:04;;;;;;;0.93;0.88;;;7.20;99.90;;;;;;4409387;32;20513;-65
2023/04/19 01:44:29;;;;;;;0.40;0.40;;;7.20;99.90;;;;;;4407413;32;20088;-65
2023/04/19 01:46:55;;;;;;;4.37;1.27;;;7.10;99.90;;;;;;4407978;32;20055;-66
2023/04/19 01:49:20;;;;;;;1.37;0.47;;;7.10;99.90;;;;;;4407761;32;20532;-65
2023/04/19 01:51:46;;;;;;;0.40;0.40;;;7.00;99.90;;;;;;4407694;32;20066;-65
2023/04/19 01:54:11;;;;;;;0.30;0.30;;;7.00;99.90;;;;;;4406492;32;20069;-65
2023/04/19 01:56:37;;;;;;;0.30;0.30;;;7.00;99.90;;;;;;4405143;32;20157;-65
2023/04/19 01:59:03;;;;;;;0.43;0.43;;;7.00;99.90;;;;;;4407272;32;20129;-66
2023/04/19 02:01:28;;;;;;;0.40;0.40;;;6.90;99.90;;;;;;4408139;32;20058;-66
2023/04/19 02:03:54;;;;;;;0.35;0.35;;;6.90;99.90;;;;;;4405897;32;20098;-65
2023/04/19 02:06:19;;;;;;;3.15;1.48;;;6.90;99.90;;;;;;4408412;32;20054;-66
2023/04/19 02:08:45;;;;;;;0.40;0.40;;;6.90;99.90;;;;;;4406397;32;20074;-65
2023/04/19 02:11:13;;;;;;;0.70;0.70;;;6.80;99.90;;;;;;4407886;32;20405;-65
2023/04/19 02:13:39;;;;;;;0.30;0.30;;;6.70;99.90;;;;;;4407069;32;20085;-65
2023/04/19 02:16:05;;;;;;;0.50;0.50;;;6.80;99.90;;;;;;4407293;32;20078;-65
2023/04/19 02:18:31;;;;;;;0.98;0.50;;;6.70;99.90;;;;;;4407810;32;20129;-65
2023/04/19 02:20:58;;;;;;;2.92;0.88;;;6.50;99.90;;;;;;4409028;32;20113;-66
2023/04/19 02:23:24;;;;;;;0.62;0.62;;;6.50;99.90;;;;;;4408712;32;20074;-65
2023/04/19 02:25:50;;;;;;;0.43;0.43;;;6.50;99.90;;;;;;4408531;32;20113;-65
2023/04/19 02:28:15;;;;;;;0.37;0.37;;;6.60;99.90;;;;;;4407029;32;20079;-67
2023/04/19 02:30:42;;;;;;;3.03;0.60;;;6.60;99.90;;;;;;4407163;32;20092;-67
2023/04/19 02:33:07;;;;;;;0.30;0.30;;;6.60;99.90;;;;;;4406791;32;20137;-66
2023/04/19 02:35:33;;;;;;;0.40;0.40;;;6.60;99.90;;;;;;4408036;32;20251;-66
2023/04/19 02:38:03;;;;;;;0.80;0.70;;;6.50;99.90;;;;;;4405895;32;20156;-66
2023/04/19 02:40:28;;;;;;;0.30;0.30;;;6.40;99.90;;;;;;4407299;32;20514;-66
2023/04/19 02:42:54;;;;;;;0.32;0.32;;;6.40;99.90;;;;;;4406382;32;20073;-66
2023/04/19 02:45:19;;;;;;;0.77;0.77;;;6.40;99.90;;;;;;4406460;32;20089;-66
2023/04/19 02:47:45;;;;;;;0.52;0.52;;;6.50;99.90;;;;;;4407740;32;20117;-66
2023/04/19 02:50:11;;;;;;;0.60;0.60;;;6.30;99.90;;;;;;4406586;32;20070;-66
2023/04/19 02:52:37;;;;;;;0.32;0.32;;;6.30;99.90;;;;;;4409781;32;20061;-66
2023/04/19 02:55:03;;;;;;;0.57;0.55;;;6.40;99.90;;;;;;4408831;32;20268;-67
2023/04/19 02:57:29;;;;;;;0.30;0.30;;;6.30;99.90;;;;;;4409989;32;20585;-65
2023/04/19 02:59:54;;;;;;;0.30;0.30;;;6.30;99.90;;;;;;4413083;32;20128;-66
2023/04/19 03:02:20;;;;;;;0.40;0.40;;;6.30;99.90;;;;;;4410569;32;20064;-66
2023/04/19 03:04:46;;;;;;;16.37;0.82;;;6.20;99.90;;;;;;4409923;32;20531;-67
2023/04/19 03:07:11;;;;;;;0.50;0.50;;;6.20;99.90;;;;;;4410097;32;20160;-66
2023/04/19 03:09:37;;;;;;;0.50;0.50;;;6.30;99.90;;;;;;4409898;32;20070;-66
2023/04/19 03:12:03;;;;;;;1.85;1.05;;;6.20;99.90;;;;;;4410085;32;20062;-66
2023/04/19 03:14:29;;;;;;;0.40;0.40;;;6.10;99.90;;;;;;4410742;32;20113;-66
2023/04/19 03:16:54;;;;;;;0.47;0.47;;;6.10;99.90;;;;;;4409938;32;20082;-66
2023/04/19 03:19:20;;;;;;;0.30;0.30;;;6.10;99.90;;;;;;4410091;32;20081;-66
2023/04/19 03:21:46;;;;;;;0.30;0.30;;;6.00;99.90;;;;;;4408404;32;20521;-66
2023/04/19 03:24:11;;;;;;;1.35;1.25;;;6.00;99.90;;;;;;4407975;32;20211;-66
2023/04/19 03:26:39;;;;;;;0.30;0.30;;;6.10;99.90;;;;;;4408188;32;20447;-66
2023/04/19 03:29:04;;;;;;;0.30;0.30;;;6.10;99.90;;;;;;4410043;32;20069;-66
2023/04/19 03:31:30;;;;;;;0.30;0.30;;;6.10;99.90;;;;;;4412065;32;20427;-66
2023/04/19 03:33:55;;;;;;;0.60;0.60;;;6.20;99.90;;;;;;4408441;32;20097;-66
2023/04/19 03:36:21;;;;;;;0.55;0.55;;;6.20;99.90;;;;;;4408778;32;20165;-66
2023/04/19 03:38:46;;;;;;;0.30;0.30;;;6.10;99.90;;;;;;4409372;32;20552;-66
2023/04/19 03:41:22;;;;;;;0.30;0.30;;;6.00;99.90;;;;;;4407904;32;20081;-66
2023/04/19 03:43:47;;;;;;;0.30;0.30;;;6.10;99.90;;;;;;4408825;32;20070;-66
2023/04/19 03:46:13;;;;;;;1.65;0.65;;;6.00;99.90;;;;;;4408669;32;20229;-66
2023/04/19 03:48:38;;;;;;;0.30;0.30;;;5.90;99.90;;;;;;4410966;32;20066;-66
2023/04/19 03:51:04;;;;;;;1.70;1.08;;;5.90;99.90;;;;;;4409440;32;20081;-66
2023/04/19 03:53:29;;;;;;;0.40;0.40;;;5.80;99.90;;;;;;4409934;32;20078;-66
2023/04/19 03:55:55;;;;;;;0.30;0.30;;;5.80;99.90;;;;;;4408256;32;20078;-66
2023/04/19 03:58:21;;;;;;;0.30;0.30;;;5.80;99.90;;;;;;4409477;32;20094;-66
2023/04/19 04:00:46;;;;;;;0.30;0.30;;;5.80;99.90;;;;;;4410252;32;20153;-66
2023/04/19 04:03:12;;;;;;;0.30;0.30;;;5.80;99.90;;;;;;4409584;32;20521;-66
2023/04/19 04:05:37;;;;;;;0.30;0.30;;;5.80;99.90;;;;;;4411544;32;20098;-66
2023/04/19 04:08:03;;;;;;;0.40;0.40;;;5.80;99.90;;;;;;4408123;32;20542;-66
2023/04/19 04:10:28;;;;;;;0.30;0.30;;;5.80;99.90;;;;;;4407256;32;20124;-66
2023/04/19 04:12:54;;;;;;;0.40;0.40;;;5.70;99.90;;;;;;4411899;32;20395;-66
2023/04/19 04:15:20;;;;;;;0.65;0.65;;;5.70;99.90;;;;;;4409288;32;20074;-66
2023/04/19 04:17:46;;;;;;;0.30;0.30;;;5.90;99.90;;;;;;4408493;32;20431;-66
2023/04/19 04:20:12;;;;;;;1.60;1.05;;;5.80;99.90;;;;;;4407577;32;20150;-66
2023/04/19 04:22:41;;;;;;;0.70;0.70;;;5.70;99.90;;;;;;4401530;32;20110;-67
2023/04/19 04:25:08;;;;;;;0.40;0.40;;;5.80;99.90;;;;;;4407972;32;20102;-66
2023/04/19 04:27:33;;;;;;;0.47;0.47;;;5.70;99.90;;;;;;4408314;32;20422;-66
2023/04/19 04:30:00;;;;;;;0.50;0.50;;;5.60;99.90;;;;;;4408288;32;20097;-67
2023/04/19 04:32:26;;;;;;;0.73;0.73;;;5.60;99.90;;;;;;4408746;32;20066;-66
2023/04/19 04:34:51;;;;;;;0.40;0.40;;;5.60;99.90;;;;;;4409329;32;20502;-66
2023/04/19 04:37:17;;;;;;;0.43;0.43;;;5.50;99.90;;;;;;4409345;32;20442;-67
2023/04/19 04:39:42;;;;;;;0.40;0.40;;;5.50;99.90;;;;;;4407768;32;20101;-66
2023/04/19 04:42:08;;;;;;;0.30;0.30;;;5.60;99.90;;;;;;4410253;32;20058;-66
2023/04/19 04:44:35;;;;;;;1.58;0.52;;;5.60;99.90;;;;;;4411509;32;20129;-66
2023/04/19 04:47:00;;;;;;;0.30;0.30;;;5.60;99.90;;;;;;4410644;32;20053;-66
2023/04/19 04:49:26;;;;;;;0.60;0.60;;;5.70;99.90;;;;;;4409671;32;20535;-66
2023/04/19 04:51:51;;;;;;;0.30;0.30;;;5.70;99.90;;;;;;4409968;32;20058;-66
2023/04/19 04:54:17;;;;;;;0.35;0.35;;;5.70;99.90;;;;;;4408778;32;20442;-66
2023/04/19 04:56:42;;;;;;;0.40;0.40;;;5.70;99.90;;;;;;4410401;32;20058;-66
2023/04/19 04:59:07;;;;;;;0.43;0.43;;;5.80;99.90;;;;;;4405628;32;20159;-66
2023/04/19 05:01:33;;;;;;;0.60;0.60;;;5.80;99.90;;;;;;4405280;32;20089;-66
2023/04/19 05:03:59;;;;;;;0.32;0.32;;;5.90;99.90;;;;;;4406199;32;20565;-66
2023/04/19 05:06:27;;;;;;;0.40;0.40;;;5.80;99.90;;;;;;4403847;32;20053;-66
2023/04/19 05:08:53;;;;;;;0.37;0.37;;;5.80;99.90;;;;;;4407333;32;20136;-66
2023/04/19 05:11:19;;;;;;;0.37;0.37;;;5.80;99.90;;;;;;4404433;32;20549;-66
2023/04/19 05:13:45;;;;;;;0.40;0.40;;;5.80;99.90;;;;;;4405628;32;20081;-66
2023/04/19 05:16:10;;;;;;;0.47;0.47;;;5.80;99.90;;;;;;4406532;32;20061;-66
2023/04/19 05:18:36;;;;;;;0.50;0.50;;;5.90;99.90;;;;;;4394539;32;20087;-66
2023/04/19 05:21:01;;;;;;;4.35;0.57;;;6.00;99.90;;;;;;4406565;32;20053;-66
2023/04/19 05:23:27;;;;;;;0.30;0.30;;;6.00;99.90;;;;;;4407082;32;20814;-66
2023/04/19 05:25:54;;;;;;;0.30;0.30;;;6.00;99.90;;;;;;4403232;32;20098;-66
2023/04/19 05:28:19;;;;;;;0.37;0.37;;;6.10;99.90;;;;;;4396610;32;20131;-66
2023/04/19 05:30:45;;;;;;;0.30;0.30;;;6.10;99.90;;;;;;4393092;32;20093;-66
2023/04/19 05:33:10;;;;;;;0.55;0.55;;;6.10;99.90;;;;;;4391167;32;20513;-66
2023/04/19 05:35:36;;;;;;;1.37;1.20;;;6.10;99.90;;;;;;4403962;32;20082;-66
2023/04/19 05:38:02;;;;;;;0.20;0.20;;;6.20;99.90;;;;;;4397527;32;20084;-66
2023/04/19 05:40:35;;;;;;;8.35;1.35;;;6.30;99.90;;;;;;4399051;32;20101;-66
2023/04/19 05:43:00;;;;;;;0.30;0.30;;;6.30;99.90;;;;;;4398236;32;20098;-65
2023/04/19 05:45:27;;;;;;;0.90;0.90;;;6.40;99.90;;;;;;4398054;32;20074;-66
2023/04/19 05:47:52;;;;;;;1.10;0.57;;;6.50;99.90;;;;;;4399130;32;20129;-66
2023/04/19 05:50:19;;;;;;;0.32;0.32;;;6.50;99.90;;;;;;4401319;32;21098;-65
2023/04/19 05:52:45;;;;;;;0.30;0.30;;;6.50;99.90;;;;;;4394856;32;20069;-65
2023/04/19 05:55:10;;;;;;;0.30;0.30;;;6.60;99.90;;;;;;4397960;32;20717;-65
2023/04/19 05:57:36;;;;;;;0.88;0.88;;;6.60;99.90;;;;;;4386179;32;20159;-65
2023/04/19 06:00:03;;;;;;;0.30;0.30;;;6.60;99.90;;;;;;4387407;32;20110;-66
2023/04/19 06:02:29;;;;;;;1.95;1.50;;;6.60;99.90;;;;;;4377487;32;20400;-66
2023/04/19 06:04:56;;;;;;;0.40;0.40;;;6.50;99.90;;;;;;4381140;32;20542;-67
2023/04/19 06:07:22;;;;;;;0.37;0.37;;;6.70;99.90;;;;;;4385733;32;20097;-66
2023/04/19 06:09:50;;;;;;;10.43;0.57;;;6.70;99.90;;;;;;4382883;32;20102;-64
2023/04/19 06:12:15;;;;;;;0.52;0.43;;;6.80;99.90;;;;;;4379879;32;20078;-67
2023/04/19 06:14:41;;;;;;;0.25;0.25;;;6.90;99.90;;;;;;4379476;32;20227;-67
2023/04/19 06:17:06;;;;;;;3.55;1.33;;;6.80;99.90;;;;;;4375893;32;20117;-67
2023/04/19 06:19:32;;;;;;;1.17;1.05;;;6.90;99.90;;;;;;4382895;32;20422;-67
2023/04/19 06:21:59;;;;;;;0.30;0.30;;;7.00;99.90;;;;;;4382858;32;20102;-68
2023/04/19 06:24:25;;;;;;;6.82;1.87;;;7.10;99.90;;;;;;4378572;32;20540;-67
2023/04/19 06:26:51;;;;;;;0.30;0.30;;;7.20;99.90;;;;;;4384451;32;20345;-67
2023/04/19 06:29:19;;;;;;;0.60;0.60;;;7.20;99.90;;;;;;4382944;32;20159;-66
2023/04/19 06:31:45;;;;;;;0.30;0.30;;;7.20;99.90;;;;;;4380035;32;21113;-66
2023/04/19 06:34:10;;;;;;;0.40;0.40;;;7.30;99.90;;;;;;4382533;32;20103;-66
2023/04/19 06:36:36;;;;;;;1.27;0.43;;;7.40;99.90;;;;;;4383649;32;20344;-66
2023/04/19 06:39:01;;;;;;;0.82;0.73;;;7.50;99.90;;;;;;4391849;32;20451;-66
2023/04/19 06:41:27;;;;;;;2.30;0.88;;;7.40;99.90;;;;;;4380795;32;20137;-67
2023/04/19 06:43:52;;;;;;;0.40;0.40;;;7.60;99.90;;;;;;4378675;32;20117;-67
2023/04/19 06:46:18;;;;;;;0.30;0.30;;;7.60;99.90;;;;;;4386034;32;20108;-66
2023/04/19 06:48:43;;;;;;;2.83;1.50;;;7.70;99.90;;;;;;4369303;32;20799;-66
2023/04/19 06:51:09;;;;;;;0.40;0.40;;;7.70;99.90;;;;;;4371416;32;20348;-66
2023/04/19 06:53:35;;;;;;;1.55;1.25;;;7.80;99.90;;;;;;4379497;32;20229;-66
2023/04/19 06:56:03;;;;;;;5.05;1.58;;;7.70;99.90;;;;;;4378416;32;20089;-67
2023/04/19 06:58:29;;;;;;;0.30;0.30;;;7.90;99.90;;;;;;4385940;32;20093;-67
2023/04/19 07:00:55;;;;;;;0.47;0.35;;;7.90;99.90;;;;;;4383349;32;20452;-66
2023/04/19 07:03:20;;;;;;;0.50;0.50;;;8.00;99.90;;;;;;4379224;32;20093;-67
2023/04/19 07:05:46;;;;;;;0.90;0.90;;;8.10;99.90;;;;;;4374911;32;20090;-67
2023/04/19 07:08:12;;;;;;;1.40;0.93;;;8.10;99.90;;;;;;4382291;32;20074;-67
2023/04/19 07:10:37;;;;;;;0.30;0.30;;;8.10;99.90;;;;;;4376785;32;20115;-66
2023/04/19 07:13:02;;;;;;;0.50;0.50;;;8.20;99.90;;;;;;4381902;32;21055;-67
2023/04/19 07:15:28;;;;;;;0.28;0.28;;;8.40;99.90;;;;;;4383483;32;20082;-67
2023/04/19 07:17:54;;;;;;;0.35;0.35;;;8.50;99.90;;;;;;4376264;32;20792;-66
2023/04/19 07:20:20;;;;;;;0.82;0.50;;;8.70;99.90;;;;;;4385085;32;20530;-67
2023/04/19 07:22:46;;;;;;;0.30;0.30;;;8.70;99.90;;;;;;4380928;32;20081;-67
2023/04/19 07:25:13;;;;;;;0.20;0.20;;;8.80;99.90;;;;;;4383903;32;20129;-68
2023/04/19 07:27:38;;;;;;;1.45;0.55;;;8.90;99.90;;;;;;4378488;32;21063;-68
2023/04/19 07:30:06;;;;;;;0.30;0.30;;;9.00;99.90;;;;;;4379350;32;20097;-68
2023/04/19 07:32:32;;;;;;;0.40;0.40;;;9.10;99.90;;;;;;4375328;32;20237;-65
2023/04/19 07:34:58;;;;;;;0.30;0.30;;;9.20;99.90;;;;;;4387352;32;20557;-67
2023/04/19 07:37:23;;;;;;;0.40;0.40;;;9.30;99.90;;;;;;4388913;32;20085;-66
2023/04/19 07:39:49;;;;;;;0.40;0.40;;;9.30;99.90;;;;;;4385059;32;20216;-65
2023/04/19 07:42:14;;;;;;;0.85;0.65;;;9.40;99.90;;;;;;4386453;32;20110;-67
2023/04/19 07:44:40;;;;;;;0.37;0.37;;;9.40;99.90;;;;;;4386683;32;20077;-66
2023/04/19 07:47:05;;;;;;;0.40;0.40;;;9.60;99.90;;;;;;4388498;32;21416;-66
2023/04/19 07:49:33;;;;;;;1.55;0.62;;;9.70;99.90;;;;;;4384329;32;20193;-66
2023/04/19 07:52:00;;;;;;;0.40;0.40;;;9.80;99.90;;;;;;4373577;32;20097;-66
2023/04/19 07:54:27;;;;;;;0.30;0.30;;;9.80;99.90;;;;;;4366062;32;21416;-67
2023/04/19 07:56:53;;;;;;;0.45;0.45;;;9.90;99.90;;;;;;4374608;32;21484;-66
2023/04/19 07:59:18;;;;;;;1.45;0.43;;;10.10;99.90;;;;;;4383371;32;20105;-67
2023/04/19 08:01:44;;;;;;;0.37;0.37;;;10.20;99.90;;;;;;4380659;32;21615;-66
2023/04/19 08:04:09;;;;;;;0.37;0.37;;;10.20;99.90;;;;;;4374723;32;20089;-66
2023/04/19 08:06:37;;;;;;;0.40;0.40;;;10.30;99.90;;;;;;4379865;32;20426;-66
2023/04/19 08:09:02;;;;;;;0.40;0.40;;;10.40;99.90;;;;;;4383741;32;20175;-66
2023/04/19 08:11:28;;;;;;;0.30;0.30;;;10.50;99.90;;;;;;4382843;32;20073;-67
2023/04/19 08:13:53;;;;;;;0.30;0.30;;;10.60;99.90;;;;;;4381302;32;21163;-66
2023/04/19 08:16:19;;;;;;;0.43;0.43;;;10.60;99.90;;;;;;4375508;32;20093;-67
2023/04/19 08:18:47;;;;;;;2.05;0.95;;;10.70;99.90;;;;;;4371730;32;20115;-66
2023/04/19 08:21:13;;;;;;;0.40;0.40;;;10.80;99.90;;;;;;4366382;32;21027;-66
2023/04/19 08:23:39;;;;;;;1.00;0.60;;;10.90;99.90;;;;;;4372780;32;20207;-64
2023/04/19 08:26:05;;;;;;;1.95;0.70;;;11.00;99.90;;;;;;4396106;32;20086;-64
2023/04/19 08:28:30;;;;;;;0.30;0.30;;;11.00;99.90;;;;;;4395986;32;20098;-64
2023/04/19 08:30:57;;;;;;;0.50;0.50;;;11.00;99.90;;;;;;4404525;32;20730;-65
2023/04/19 08:33:24;;;;;;;0.30;0.30;;;11.10;99.90;;;;;;4403136;32;20373;-64
2023/04/19 08:35:49;;;;;;;0.50;0.50;;;11.20;99.90;;;;;;4403001;32;20114;-64
2023/04/19 08:38:15;;;;;;;0.40;0.40;;;11.30;99.90;;;;;;4403861;32;20093;-65
2023/04/19 08:40:46;;;;;;;0.50;0.50;;;11.40;99.90;;;;;;4407599;32;20084;-65
2023/04/19 08:43:11;;;;;;;0.50;0.50;;;11.50;99.90;;;;;;4399505;32;20118;-65
2023/04/19 08:45:38;;;;;;;0.60;0.60;;;11.70;99.90;;;;;;4401783;32;20105;-65
2023/04/19 08:48:05;;;;;;;0.30;0.30;;;11.70;99.90;;;;;;4399494;32;20081;-65
2023/04/19 08:50:32;;;;;;;0.30;0.30;;;11.60;99.90;;;;;;4402481;32;20090;-64
2023/04/19 08:52:59;;;;;;;0.40;0.40;;;11.60;99.90;;;;;;4382897;32;20101;-65
2023/04/19 08:55:26;;;;;;;0.40;0.40;;;11.50;99.90;;;;;;4385797;32;21128;-64
2023/04/19 08:57:52;;;;;;;1.02;0.70;;;11.50;99.90;;;;;;4380365;32;20085;-65
2023/04/19 09:00:18;;;;;;;0.82;0.82;;;11.60;99.90;;;;;;4385734;32;20923;-64
2023/04/19 09:02:47;;;;;;;0.45;0.45;;;11.70;99.90;;;;;;4381597;32;20073;-66
2023/04/19 09:05:15;;;;;;;0.40;0.40;;;12.10;99.90;;;;;;4374759;32;20548;-65
2023/04/19 09:07:41;;;;;;;0.50;0.50;;;12.30;99.90;;;;;;4368627;32;20594;-66
2023/04/19 09:10:09;;;;;;;0.70;0.70;;;12.60;99.90;;;;;;4374885;32;20102;-65
2023/04/19 09:12:36;;;;;;;0.40;0.40;;;13.00;99.90;;;;;;4375431;32;20953;-65
2023/04/19 09:15:03;;;;;;;2.37;1.15;;;13.00;99.90;;;;;;4376665;32;20110;-65
2023/04/19 09:17:30;;;;;;;0.65;0.65;;;13.00;99.90;;;;;;4388285;32;20498;-65
2023/04/19 09:19:56;;;;;;;0.40;0.40;;;12.80;99.90;;;;;;4374573;32;21452;-65
2023/04/19 09:22:21;;;;;;;0.55;0.55;;;12.90;99.90;;;;;;4370896;32;21201;-65
2023/04/19 09:24:48;;;;;;;0.45;0.45;;;13.10;99.90;;;;;;4364099;32;20085;-65
2023/04/19 09:27:24;;;;;;;0.32;0.32;;;13.50;99.90;;;;;;4365197;32;20106;-66
2023/04/19 09:29:54;;;;;;;0.35;0.35;;;13.80;99.90;;;;;;4377555;32;20102;-66
2023/04/19 09:32:21;;;;;;;0.57;0.57;;;14.20;99.90;;;;;;4369656;32;21091;-67
2023/04/19 09:34:51;;;;;;;0.40;0.40;;;14.30;98.80;;;;;;4378389;32;20077;-67
2023/04/19 09:37:16;;;;;;;0.70;0.70;;;14.20;98.30;;;;;;4371671;32;20144;-66
2023/04/19 09:39:42;;;;;;;3.95;1.10;;;13.70;97.80;;;;;;4373404;32;20568;-66
2023/04/19 09:42:08;;;;;;;0.50;0.50;;;13.20;98.70;;;;;;4378994;32;20085;-65
2023/04/19 09:44:34;;;;;;;7.30;0.65;;;13.00;99.00;;;;;;4372737;32;20105;-66
2023/04/19 09:47:00;;;;;;;0.40;0.40;;;12.80;98.90;;;;;;4376935;32;20112;-65
2023/04/19 09:49:26;;;;;;;0.47;0.47;;;12.70;99.20;;;;;;4372140;32;20081;-65
2023/04/19 09:51:53;;;;;;;0.50;0.50;;;12.80;99.40;;;;;;4378241;32;20285;-66
2023/04/19 09:54:21;;;;;;;0.50;0.50;;;12.50;98.80;;;;;;4376081;32;20256;-65
2023/04/19 09:56:47;;;;;;;0.47;0.47;;;12.60;99.80;;;;;;4373721;32;20085;-65
2023/04/19 09:59:12;;;;;;;7.68;0.65;;;13.00;99.60;;;;;;4379381;32;20058;-65
2023/04/19 10:01:43;;;;;;;1.00;0.93;;;13.30;98.70;;;;;;4383511;32;20545;-67
2023/04/19 10:04:11;;;;;;;0.40;0.40;;;13.50;98.50;;;;;;4376681;32;20455;-66
2023/04/19 10:06:38;;;;;;;0.55;0.55;;;13.70;97.60;;;;;;4382079;32;20089;-66
2023/04/19 10:09:04;;;;;;;0.75;0.75;;;13.70;97.80;;;;;;4386548;32;20632;-66
2023/04/19 10:11:37;;;;;;;0.85;0.85;;;13.80;97.40;;;;;;4381053;32;20117;-66
2023/04/19 10:14:07;;;;;;;4.07;0.68;;;14.10;97.90;;;;;;4384096;32;20082;-66
2023/04/19 10:16:33;;;;;;;0.60;0.60;;;14.60;97.20;;;;;;4381647;32;20106;-65
2023/04/19 10:19:01;;;;;;;0.60;0.60;;;15.00;95.20;;;;;;4382179;32;20747;-67
2023/04/19 10:21:28;;;;;;;0.50;0.50;;;15.30;95.40;;;;;;4383546;32;20062;-66
2023/04/19 10:23:55;;;;;;;5.62;1.15;;;15.20;93.80;;;;;;4393101;32;20081;-66
2023/04/19 10:26:21;;;;;;;0.45;0.45;;;15.30;95.30;;;;;;4392842;32;20061;-66
2023/04/19 10:28:47;;;;;;;0.65;0.60;;;15.80;94.20;;;;;;4394573;32;20244;-66
2023/04/19 10:31:14;;;;;;;0.50;0.50;;;16.00;93.20;;;;;;4390728;32;20093;-66
2023/04/19 10:33:40;;;;;;;1.75;0.50;;;16.20;91.80;;;;;;4385538;32;20486;-66
2023/04/19 10:36:09;;;;;;;0.60;0.60;;;16.10;93.00;;;;;;4390263;32;20469;-67
2023/04/19 10:38:42;;;;;;;8.80;1.27;;;16.30;91.80;;;;;;4393278;32;20614;-66
2023/04/19 10:41:11;;;;;;;0.70;0.70;;;15.90;92.80;;;;;;4395051;32;20153;-66
2023/04/19 10:43:37;;;;;;;0.62;0.62;;;15.50;93.10;;;;;;4388566;32;20081;-66
2023/04/19 10:46:08;;;;;;;0.65;0.65;;;15.40;92.50;;;;;;4394025;32;20082;-67
2023/04/19 10:48:37;;;;;;;0.73;0.73;;;15.40;93.00;;;;;;4392755;32;20045;-65
2023/04/19 10:51:06;;;;;;;0.47;0.47;;;14.90;92.70;;;;;;4392070;32;20109;-66
2023/04/19 10:53:50;;;;;;;2.17;0.75;;;14.30;93.60;;;;;;4386534;32;20098;-67
2023/04/19 10:56:18;;;;;;;0.32;0.32;;;14.00;95.10;;;;;;4384725;32;20580;-65
2023/04/19 10:59:33;;;;;;;0.73;0.73;;;14.20;94.40;;;;;;4393966;32;20093;-66
2023/04/19 11:01:49;;;;;;;1.65;0.93;;;14.80;94.80;;;;;;4374662;32;20085;-65
2023/04/19 11:04:17;;;;;;;0.60;0.60;;;15.40;92.60;;;;;;4392739;32;20634;-66
2023/04/19 11:06:59;;;;;;;10.57;2.60;;;15.30;93.00;;;;;;4395692;32;20144;-65
2023/04/19 11:09:33;;;;;;;0.43;0.43;;;15.20;93.10;;;;;;4394623;32;20097;-66
2023/04/19 11:12:01;;;;;;;0.52;0.52;;;15.20;93.90;;;;;;4393326;32;20117;-66
2023/04/19 11:14:31;;;;;;;0.50;0.50;;;15.40;92.50;;;;;;4398210;32;20180;-65
2023/04/19 11:16:57;;;;;;;0.60;0.60;;;15.00;92.80;;;;;;4393146;32;20077;-65
2023/04/19 11:19:25;;;;;;;0.40;0.40;;;15.30;93.30;;;;;;4394566;32;20091;-65
2023/04/19 11:21:50;;;;;;;0.60;0.57;;;15.70;93.00;;;;;;4385957;32;21637;-66
2023/04/19 11:24:17;;;;;;;3.35;1.20;;;15.80;92.10;;;;;;4383310;32;20089;-65
2023/04/19 11:26:44;;;;;;;0.80;0.80;;;15.60;92.00;;;;;;4385437;32;20089;-66
2023/04/19 11:29:11;;;;;;;1.27;1.17;;;15.50;93.50;;;;;;4385488;32;20189;-64
2023/04/19 11:31:36;;;;;;;0.50;0.50;;;15.60;92.70;;;;;;4390486;32;20171;-65
2023/04/19 11:34:02;;;;;;;0.62;0.52;;;15.50;92.90;;;;;;4396274;32;20085;-66
2023/04/19 11:36:30;;;;;;;0.50;0.50;;;15.20;93.00;;;;;;4397689;32;20113;-66
2023/04/19 11:38:56;;;;;;;0.60;0.60;;;14.80;93.20;;;;;;4394896;32;20156;-63
2023/04/19 11:41:22;;;;;;;0.73;0.60;;;14.70;94.40;;;;;;4388533;32;20077;-67
2023/04/19 11:43:47;;;;;;;0.40;0.40;;;14.60;93.80;;;;;;4383109;32;108433;-65
2023/04/19 11:46:13;;;;;;;1.70;1.05;;;14.60;93.70;;;;;;4382832;32;20114;-64
2023/04/19 11:48:51;;;;;;;1.15;0.50;;;14.70;93.60;;;;;;4380193;32;20562;-63
2023/04/19 11:51:16;;;;;;;0.50;0.50;;;14.60;93.20;;;;;;4393567;32;20607;-63
2023/04/19 11:53:42;;;;;;;8.65;0.52;;;14.80;93.00;;;;;;4392426;32;20475;-66
2023/04/19 11:56:08;;;;;;;0.40;0.40;;;15.00;92.80;;;;;;4396510;32;20106;-63
2023/04/19 11:58:44;;;;;;;1.05;1.02;;;14.90;93.50;;;;;;4396455;32;20074;-67
2023/04/19 12:01:12;;;;;;;23.10;2.25;;;14.70;93.60;;;;;;4391391;32;20157;-65
2023/04/19 12:03:43;;;;;;;0.73;0.68;;;14.70;93.50;;;;;;4398469;32;20343;-64
2023/04/19 12:06:13;;;;;;;4.90;1.02;;;14.70;93.30;;;;;;4393905;32;20372;-63
2023/04/19 12:08:44;;;;;;;0.40;0.40;;;14.70;93.30;;;;;;4394807;32;20073;-64
2023/04/19 12:11:09;;;;;;;1.23;0.60;;;14.50;93.30;;;;;;4396584;32;20066;-65
2023/04/19 12:13:36;;;;;;;0.50;0.50;;;14.40;93.20;;;;;;4398201;32;20166;-63
2023/04/19 12:16:02;;;;;;;0.40;0.40;;;14.30;94.60;;;;;;4394983;32;20509;-63
2023/04/19 12:18:40;;;;;;;1.35;0.98;;;14.60;93.50;;;;;;4391418;32;20280;-64
2023/04/19 12:21:05;;;;;;;2.55;0.70;;;14.90;92.50;;;;;;4393623;32;20256;-64
2023/04/19 12:23:31;;;;;;;1.08;0.95;;;15.20;92.00;;;;;;4394059;32;20181;-67
2023/04/19 12:25:56;;;;;;;0.50;0.50;;;15.20;91.00;;;;;;4396682;32;20077;-65
2023/04/19 12:28:22;;;;;;;0.47;0.47;;;14.90;91.40;;;;;;4396056;32;20096;-63
2023/04/19 12:30:47;;;;;;;0.75;0.75;;;14.80;91.90;;;;;;4399635;32;20069;-66
2023/04/19 12:33:13;;;;;;;1.65;0.70;;;14.80;92.10;;;;;;4403573;32;20124;-64
2023/04/19 12:35:39;;;;;;;1.30;1.20;;;14.70;91.60;;;;;;4404237;32;20093;-65
2023/04/19 12:38:05;;;;;;;0.50;0.50;;;14.40;92.70;;;;;;4402088;32;20081;-65
2023/04/19 12:40:31;;;;;;;0.50;0.50;;;14.30;92.70;;;;;;4400901;32;20114;-63
2023/04/19 12:42:56;;;;;;;0.57;0.57;;;14.50;92.60;;;;;;4399264;32;20066;-67
2023/04/19 12:45:21;;;;;;;0.65;0.62;;;14.50;92.50;;;;;;4379579;32;20089;-64
2023/04/19 12:47:47;;;;;;;0.88;0.88;;;14.50;93.20;;;;;;4400309;32;20478;-63
2023/04/19 12:50:14;;;;;;;5.82;0.60;;;14.40;92.80;;;;;;4402705;32;20069;-65